Time;durP1;ratioP1;P1;durP2;ratioP2;P2;SDS_P1;SDS_P2;PMS_P1;PMS_P2;Temp;Humidity;BMP_temperature;BMP_pressure;BME280_temperature;BME280_humidity;BME280_pressure;Samples;Min_cycle;Max_cycle;Signal;HPM_P1;HPM_P2
2021/11/01 00:02:19;;;;;;;21.17;6.53;;;;;;;;;;5030918;28;20453;-68
2021/11/01 00:04:45;;;;;;;17.42;5.40;;;;;;;;;;5046668;28;20029;-68
2021/11/01 00:07:13;;;;;;;19.55;5.03;;;;;;;;;;5050300;28;20024;-69
2021/11/01 00:09:39;;;;;;;16.95;5.57;;;;;;;;;;5040317;28;20095;-69
2021/11/01 00:12:06;;;;;;;17.65;5.93;;;;;;;;;;5048361;28;20032;-68
2021/11/01 00:14:32;;;;;;;19.00;5.40;;;;;;;;;;5049717;28;20021;-68
2021/11/01 00:16:58;;;;;;;15.82;4.68;;;;;;;;;;5049847;28;20580;-68
2021/11/01 00:19:26;;;;;;;20.10;5.63;;;;;;;;;;5040043;28;20123;-69
2021/11/01 00:21:53;;;;;;;14.50;5.57;;;;;;;;;;5049149;28;20029;-69
2021/11/01 00:24:19;;;;;;;13.23;5.38;;;;;;;;;;5048873;28;20568;-68
2021/11/01 00:26:46;;;;;;;20.38;5.03;;;;;;;;;;5052109;28;20032;-68
2021/11/01 00:29:12;;;;;;;16.33;4.93;;;;;;;;;;5045418;28;20060;-69
2021/11/01 00:31:38;;;;;;;14.52;5.32;;;;;;;;;;5051362;28;20021;-70
2021/11/01 00:34:04;;;;;;;21.35;5.15;;;;;;;;;;5059225;28;20512;-68
2021/11/01 00:36:31;;;;;;;18.55;5.63;;;;;;;;;;5055446;28;20028;-68
2021/11/01 00:38:57;;;;;;;18.08;5.97;;;;;;;;;;5049963;28;20505;-68
2021/11/01 00:41:23;;;;;;;20.45;5.57;;;;;;;;;;5053620;28;20036;-68
2021/11/01 00:43:50;;;;;;;25.70;6.50;;;;;;;;;;5027396;28;20035;-68
2021/11/01 00:46:16;;;;;;;18.02;5.72;;;;;;;;;;5048582;28;20022;-68
2021/11/01 00:48:42;;;;;;;19.33;5.38;;;;;;;;;;5030615;28;20451;-68
2021/11/01 00:51:08;;;;;;;20.38;5.38;;;;;;;;;;5047434;28;20048;-68
2021/11/01 00:53:37;;;;;;;13.65;5.03;;;;;;;;;;5052722;28;20074;-68
2021/11/01 00:56:04;;;;;;;20.20;5.15;;;;;;;;;;5055094;28;20032;-68
2021/11/01 00:58:32;;;;;;;11.50;4.50;;;;;;;;;;5050025;28;20021;-68
2021/11/01 01:00:58;;;;;;;14.60;5.45;;;;;;;;;;5050352;28;20713;-68
2021/11/01 01:03:25;;;;;;;19.52;5.50;;;;;;;;;;5053950;28;20047;-67
2021/11/01 01:05:53;;;;;;;13.38;5.13;;;;;;;;;;5051952;28;20423;-67
2021/11/01 01:08:20;;;;;;;12.48;5.15;;;;;;;;;;5055324;28;20501;-68
2021/11/01 01:10:47;;;;;;;19.35;5.53;;;;;;;;;;5049471;28;20037;-68
2021/11/01 01:13:16;;;;;;;15.35;5.43;;;;;;;;;;5047768;28;20025;-69
2021/11/01 01:16:02;;;;;;;16.75;5.80;;;;;;;;;;5051063;28;20036;-68
2021/11/01 01:18:32;;;;;;;15.45;4.78;;;;;;;;;;5049962;28;20041;-68
2021/11/01 01:21:00;;;;;;;22.17;5.55;;;;;;;;;;5053986;28;20032;-68
2021/11/01 01:23:27;;;;;;;15.27;5.85;;;;;;;;;;5038258;28;20036;-68
2021/11/01 01:25:55;;;;;;;12.65;5.18;;;;;;;;;;5047776;28;20397;-68
2021/11/01 01:28:22;;;;;;;16.20;4.90;;;;;;;;;;5035457;28;20555;-67
2021/11/01 01:30:48;;;;;;;15.30;5.47;;;;;;;;;;5047754;28;20025;-68
2021/11/01 01:33:15;;;;;;;16.88;6.35;;;;;;;;;;5049529;28;20080;-67
2021/11/01 01:35:41;;;;;;;15.05;4.82;;;;;;;;;;5050579;28;20033;-68
2021/11/01 01:38:08;;;;;;;12.50;4.45;;;;;;;;;;5049367;28;20629;-68
2021/11/01 01:40:35;;;;;;;17.00;5.53;;;;;;;;;;5054340;28;20195;-68
2021/11/01 01:43:03;;;;;;;10.05;5.43;;;;;;;;;;5053171;28;20488;-67
2021/11/01 01:45:29;;;;;;;13.80;5.20;;;;;;;;;;5047371;28;20273;-68
2021/11/01 01:47:56;;;;;;;12.55;4.60;;;;;;;;;;5047881;28;20036;-68
2021/11/01 01:50:22;;;;;;;12.10;5.20;;;;;;;;;;5051060;28;20074;-68
2021/11/01 01:52:53;;;;;;;13.57;5.85;;;;;;;;;;5050400;28;20048;-67
2021/11/01 01:55:19;;;;;;;17.33;5.03;;;;;;;;;;5046419;28;20059;-69
2021/11/01 01:57:46;;;;;;;11.80;5.30;;;;;;;;;;5043531;28;20029;-68
2021/11/01 02:01:15;;;;;;;11.13;4.65;;;;;;;;;;5048196;28;20021;-68
2021/11/01 02:03:09;;;;;;;11.40;4.55;;;;;;;;;;5032325;28;20025;-68
2021/11/01 02:05:45;;;;;;;13.13;4.90;;;;;;;;;;5050558;28;20113;-68
2021/11/01 02:08:13;;;;;;;14.82;5.10;;;;;;;;;;5031119;28;20022;-69
2021/11/01 02:10:42;;;;;;;14.55;5.13;;;;;;;;;;5051912;28;20033;-69
2021/11/01 02:13:14;;;;;;;12.25;4.45;;;;;;;;;;5052557;28;20025;-69
2021/11/01 02:15:43;;;;;;;14.13;4.90;;;;;;;;;;5051904;28;20131;-69
2021/11/01 02:18:10;;;;;;;16.88;5.60;;;;;;;;;;5037628;28;20059;-68
2021/11/01 02:20:36;;;;;;;18.08;5.85;;;;;;;;;;5049971;28;20033;-68
2021/11/01 02:23:09;;;;;;;19.42;4.93;;;;;;;;;;5051242;28;20017;-68
2021/11/01 02:25:40;;;;;;;11.35;5.22;;;;;;;;;;5056391;28;20092;-69
2021/11/01 02:28:10;;;;;;;14.60;5.00;;;;;;;;;;5045452;28;20047;-69
2021/11/01 02:30:38;;;;;;;18.30;5.90;;;;;;;;;;5052886;28;20021;-68
2021/11/01 02:33:05;;;;;;;14.40;5.18;;;;;;;;;;5051017;28;20036;-69
2021/11/01 02:35:32;;;;;;;17.65;5.80;;;;;;;;;;5051935;28;20055;-69
2021/11/01 02:37:58;;;;;;;17.08;5.30;;;;;;;;;;5046845;28;20032;-68
2021/11/01 02:40:29;;;;;;;25.77;5.57;;;;;;;;;;5041192;28;20021;-68
2021/11/01 02:42:55;;;;;;;20.20;5.47;;;;;;;;;;5037350;28;20040;-68
2021/11/01 02:45:21;;;;;;;14.00;5.75;;;;;;;;;;5051505;28;20028;-68
2021/11/01 02:47:47;;;;;;;16.95;4.65;;;;;;;;;;5044921;28;20087;-68
2021/11/01 02:50:14;;;;;;;16.67;4.65;;;;;;;;;;5021327;28;20032;-68
2021/11/01 02:52:40;;;;;;;21.90;5.25;;;;;;;;;;5050921;28;20055;-68
2021/11/01 02:55:07;;;;;;;14.40;5.32;;;;;;;;;;5051360;28;20047;-68
2021/11/01 02:57:34;;;;;;;15.07;4.90;;;;;;;;;;5042895;28;20021;-68
2021/11/01 03:00:00;;;;;;;13.45;4.57;;;;;;;;;;5035715;28;20374;-68
2021/11/01 03:02:26;;;;;;;19.98;4.50;;;;;;;;;;5039013;28;20472;-68
2021/11/01 03:04:52;;;;;;;18.67;5.15;;;;;;;;;;5047531;28;20428;-68
2021/11/01 03:07:21;;;;;;;26.25;5.35;;;;;;;;;;5044347;28;20476;-68
2021/11/01 03:09:48;;;;;;;21.40;5.50;;;;;;;;;;5048210;28;20056;-68
2021/11/01 03:12:17;;;;;;;22.40;5.35;;;;;;;;;;5049953;28;20025;-68
2021/11/01 03:14:46;;;;;;;17.88;7.30;;;;;;;;;;5049722;28;20033;-68
2021/11/01 03:17:14;;;;;;;15.73;5.80;;;;;;;;;;5048646;28;20072;-68
2021/11/01 03:19:42;;;;;;;12.50;5.05;;;;;;;;;;5043855;28;20059;-68
2021/11/01 03:22:09;;;;;;;17.17;6.43;;;;;;;;;;5046632;28;20036;-68
2021/11/01 03:24:36;;;;;;;17.55;5.32;;;;;;;;;;5034305;28;20048;-67
2021/11/01 03:27:04;;;;;;;10.15;4.88;;;;;;;;;;5028779;28;20152;-68
2021/11/01 03:29:31;;;;;;;18.27;5.68;;;;;;;;;;5043532;28;20017;-67
2021/11/01 03:31:58;;;;;;;18.48;5.65;;;;;;;;;;5050337;28;20021;-68
2021/11/01 03:34:25;;;;;;;19.42;5.80;;;;;;;;;;5043820;28;20032;-68
2021/11/01 03:36:52;;;;;;;18.25;5.57;;;;;;;;;;5048337;28;20443;-68
2021/11/01 03:39:18;;;;;;;17.65;5.95;;;;;;;;;;5040070;28;20083;-68
2021/11/01 03:41:45;;;;;;;18.70;6.25;;;;;;;;;;5051207;28;20024;-67
2021/11/01 03:44:22;;;;;;;15.63;4.85;;;;;;;;;;5049611;28;20489;-68
2021/11/01 03:49:14;;;;;;;16.38;5.68;;;;;;;;;;5053541;28;20040;-67
2021/11/01 03:54:18;;;;;;;15.60;5.38;;;;;;;;;;5046090;28;20029;-68
2021/11/01 03:56:45;;;;;;;12.35;5.10;;;;;;;;;;5054049;28;20460;-68
2021/11/01 03:59:12;;;;;;;14.93;5.05;;;;;;;;;;5050684;28;20063;-68
2021/11/01 04:01:39;;;;;;;14.65;4.68;;;;;;;;;;5053067;28;20028;-69
2021/11/01 04:04:06;;;;;;;17.65;5.07;;;;;;;;;;5048886;28;20029;-68
2021/11/01 04:06:32;;;;;;;14.50;7.00;;;;;;;;;;5036277;28;20024;-67
2021/11/01 04:08:58;;;;;;;19.13;5.88;;;;;;;;;;5040780;28;20032;-67
2021/11/01 04:11:25;;;;;;;10.18;4.90;;;;;;;;;;5051371;28;20021;-68
2021/11/01 04:14:02;;;;;;;15.77;5.47;;;;;;;;;;5039111;28;20086;-68
2021/11/01 04:16:43;;;;;;;16.60;4.55;;;;;;;;;;5051716;28;20108;-68
2021/11/01 04:21:42;;;;;;;17.15;5.30;;;;;;;;;;5050590;28;20037;-68
2021/11/01 04:24:09;;;;;;;11.20;4.95;;;;;;;;;;5023882;28;20021;-68
2021/11/01 04:26:35;;;;;;;13.98;4.68;;;;;;;;;;5038539;28;20104;-67
2021/11/01 04:29:05;;;;;;;17.25;5.28;;;;;;;;;;5055149;28;20021;-68
2021/11/01 04:31:34;;;;;;;24.83;7.50;;;;;;;;;;5045632;28;20104;-70
2021/11/01 04:34:08;;;;;;;17.05;5.53;;;;;;;;;;5038889;28;20033;-68
2021/11/01 04:36:34;;;;;;;17.00;5.25;;;;;;;;;;5051636;28;20017;-68
2021/11/01 04:39:30;;;;;;;9.07;4.50;;;;;;;;;;5042966;28;20025;-67
2021/11/01 04:45:10;;;;;;;16.25;4.65;;;;;;;;;;5054955;28;20108;-68
2021/11/01 04:55:04;;;;;;;17.45;4.88;;;;;;;;;;5053481;28;20068;-69
2021/11/01 04:57:31;;;;;;;16.17;6.32;;;;;;;;;;5053530;28;20100;-68
2021/11/01 04:59:57;;;;;;;17.67;4.65;;;;;;;;;;5057465;28;20056;-68
2021/11/01 05:02:25;;;;;;;18.45;4.82;;;;;;;;;;5050950;28;20408;-68
2021/11/01 05:04:52;;;;;;;17.63;4.85;;;;;;;;;;5049532;28;20035;-68
2021/11/01 05:07:18;;;;;;;22.48;5.05;;;;;;;;;;5053329;28;20399;-68
2021/11/01 05:10:04;;;;;;;12.55;4.45;;;;;;;;;;5050218;28;20021;-68
2021/11/01 05:12:41;;;;;;;13.20;4.80;;;;;;;;;;5052329;28;20031;-68
2021/11/01 05:15:11;;;;;;;10.70;4.60;;;;;;;;;;5057317;28;20029;-68
2021/11/01 05:17:59;;;;;;;23.90;4.70;;;;;;;;;;5050815;28;20130;-69
2021/11/01 05:25:39;;;;;;;15.93;4.60;;;;;;;;;;5051255;28;20040;-68
2021/11/01 05:30:39;;;;;;;11.25;4.20;;;;;;;;;;5049607;28;20487;-68
2021/11/01 05:33:30;;;;;;;15.48;4.28;;;;;;;;;;5052228;28;20032;-68
2021/11/01 05:35:52;;;;;;;14.00;5.15;;;;;;;;;;5054874;28;20055;-69
2021/11/01 05:38:18;;;;;;;10.20;4.07;;;;;;;;;;5059796;28;20032;-68
2021/11/01 05:40:44;;;;;;;5.60;3.70;;;;;;;;;;5052248;28;20052;-68
2021/11/01 05:43:10;;;;;;;18.75;4.20;;;;;;;;;;5052158;28;20477;-69
2021/11/01 05:45:36;;;;;;;12.73;4.43;;;;;;;;;;5192022;22;20041;-71
2021/11/01 05:48:03;;;;;;;13.98;4.90;;;;;;;;;;5066888;28;20479;-72
2021/11/01 05:50:35;;;;;;;17.73;4.07;;;;;;;;;;5069232;28;20043;-71
2021/11/01 05:53:04;;;;;;;10.40;4.43;;;;;;;;;;5071429;28;20024;-73
2021/11/01 05:55:42;;;;;;;18.50;4.60;;;;;;;;;;5070992;28;20302;-72
2021/11/01 06:13:30;;;;;;;11.35;4.18;;;;;;;;;;5060221;28;20041;-73
2021/11/01 06:15:58;;;;;;;12.65;4.40;;;;;;;;;;5064238;28;20095;-73
2021/11/01 06:18:35;;;;;;;13.43;4.45;;;;;;;;;;5062718;28;20033;-73
2021/11/01 06:21:01;;;;;;;6.18;3.88;;;;;;;;;;5049353;28;20083;-73
2021/11/01 06:23:27;;;;;;;17.95;3.97;;;;;;;;;;5067470;28;20074;-72
2021/11/01 06:25:53;;;;;;;13.98;4.93;;;;;;;;;;5065409;28;20021;-74
2021/11/01 06:28:19;;;;;;;14.73;5.15;;;;;;;;;;5059906;22;20374;-68
2021/11/01 06:30:55;;;;;;;9.95;4.10;;;;;;;;;;5056258;28;20436;-68
2021/11/01 06:41:41;;;;;;;16.80;3.90;;;;;;;;;;5071232;28;20081;-72
2021/11/01 06:49:52;;;;;;;;;;;;;;;;;;5057429;28;20052;-73
2021/11/01 06:57:57;;;;;;;17.88;4.05;;;;;;;;;;5069309;28;20082;-72
2021/11/01 07:16:55;;;;;;;20.43;4.43;;;;;;;;;;5056058;28;20031;-73
2021/11/01 08:29:43;;;;;;;8.02;3.38;;;;;;;;;;5040316;28;20037;-74
2021/11/01 09:04:34;;;;;;;7.05;2.97;;;;;;;;;;5044125;28;20103;-73
2021/11/01 09:29:02;;;;;;;8.82;4.68;;;;;;;;;;5039716;28;20047;-75
2021/11/01 09:37:56;;;;;;;11.52;5.57;;;;;;;;;;5049529;28;20039;-74
2021/11/01 09:42:36;;;;;;;;;;;;;;;;;;5031908;28;20111;-74
2021/11/01 09:45:03;;;;;;;16.17;4.55;;;;;;;;;;5051921;28;19955;-74
2021/11/01 09:47:30;;;;;;;9.38;3.60;;;;;;;;;;5048674;28;20024;-74
2021/11/01 09:49:56;;;;;;;16.90;5.78;;;;;;;;;;5041195;28;20117;-74
2021/11/01 09:52:24;;;;;;;12.43;4.53;;;;;;;;;;5029134;28;20036;-74
2021/11/01 09:54:53;;;;;;;12.00;4.40;;;;;;;;;;5028942;28;20305;-74
2021/11/01 09:57:32;;;;;;;14.20;4.30;;;;;;;;;;5020102;28;20108;-74
2021/11/01 09:59:58;;;;;;;10.02;4.10;;;;;;;;;;5047185;28;20021;-74
2021/11/01 10:02:26;;;;;;;10.77;4.00;;;;;;;;;;5049903;28;20066;-74
2021/11/01 10:04:54;;;;;;;10.60;3.90;;;;;;;;;;5049132;28;20057;-75
2021/11/01 10:07:25;;;;;;;8.48;3.90;;;;;;;;;;5045115;28;20068;-74
2021/11/01 10:09:56;;;;;;;8.43;3.65;;;;;;;;;;5045048;28;20033;-74
2021/11/01 10:12:22;;;;;;;9.75;3.80;;;;;;;;;;5049011;28;20043;-74
2021/11/01 10:14:49;;;;;;;11.95;3.80;;;;;;;;;;5034715;28;20025;-75
2021/11/01 10:17:35;;;;;;;9.70;5.07;;;;;;;;;;5047873;28;20388;-74
2021/11/01 10:20:02;;;;;;;12.48;4.80;;;;;;;;;;5028259;28;20025;-74
2021/11/01 10:22:35;;;;;;;14.30;4.30;;;;;;;;;;5033412;28;20077;-73
2021/11/01 10:25:01;;;;;;;8.32;3.70;;;;;;;;;;5032773;28;20029;-75
2021/11/01 10:27:32;;;;;;;10.75;3.83;;;;;;;;;;5047689;28;20026;-75
2021/11/01 10:30:04;;;;;;;12.40;4.03;;;;;;;;;;5018515;28;20089;-75
2021/11/01 10:32:31;;;;;;;8.93;3.90;;;;;;;;;;5051408;28;20383;-74
2021/11/01 10:35:05;;;;;;;10.77;3.92;;;;;;;;;;5050594;28;20437;-73
2021/11/01 10:37:35;;;;;;;9.50;4.15;;;;;;;;;;5051513;28;20453;-76
2021/11/01 10:40:04;;;;;;;4.82;3.72;;;;;;;;;;5045496;28;20013;-73
2021/11/01 10:42:33;;;;;;;8.80;3.80;;;;;;;;;;5024858;28;20013;-74
2021/11/01 10:45:38;;;;;;;9.55;4.75;;;;;;;;;;5050098;28;20386;-74
2021/11/01 10:56:53;;;;;;;5.75;3.30;;;;;;;;;;5050979;28;20037;-74
2021/11/01 11:12:58;;;;;;;13.50;4.20;;;;;;;;;;5046287;28;20125;-73
2021/11/01 11:15:26;;;;;;;5.80;4.15;;;;;;;;;;5047925;28;20068;-74
2021/11/01 11:20:51;;;;;;;9.32;4.28;;;;;;;;;;5046298;28;20035;-74
2021/11/01 11:31:53;;;;;;;11.70;4.07;;;;;;;;;;5045106;28;20541;-74
2021/11/01 11:40:38;;;;;;;9.95;4.57;;;;;;;;;;4980951;28;20030;-74
2021/11/01 11:49:07;;;;;;;10.85;4.22;;;;;;;;;;5044402;28;20052;-75
2021/11/01 11:51:33;;;;;;;14.90;4.90;;;;;;;;;;5030685;28;20028;-74
2021/11/01 11:54:00;;;;;;;14.85;4.90;;;;;;;;;;5048068;28;20396;-74
2021/11/01 11:56:37;;;;;;;9.25;4.13;;;;;;;;;;5030277;28;20060;-73
2021/11/01 11:59:05;;;;;;;15.85;4.78;;;;;;;;;;5048604;28;20053;-74
2021/11/01 12:01:31;;;;;;;9.70;3.42;;;;;;;;;;5044921;28;20025;-75
2021/11/01 12:04:06;;;;;;;10.43;3.67;;;;;;;;;;5046912;28;20036;-76
2021/11/01 12:06:55;;;;;;;9.32;3.90;;;;;;;;;;5046959;28;20539;-74
2021/11/01 12:09:24;;;;;;;11.55;4.55;;;;;;;;;;5041881;28;20476;-75
2021/11/01 12:17:06;;;;;;;10.77;3.65;;;;;;;;;;5047805;28;20029;-74
2021/11/01 12:19:32;;;;;;;;;;;;;;;;;;5045053;28;20040;-74
2021/11/01 12:22:00;;;;;;;11.38;3.63;;;;;;;;;;5046723;28;20779;-74
2021/11/01 12:24:27;;;;;;;11.00;3.50;;;;;;;;;;5044391;28;20021;-74
2021/11/01 12:27:01;;;;;;;9.80;4.00;;;;;;;;;;5040994;28;20033;-74
2021/11/01 12:29:27;;;;;;;10.55;4.38;;;;;;;;;;5040548;28;20052;-74
2021/11/01 12:32:01;;;;;;;11.52;4.78;;;;;;;;;;5048044;28;20032;-73
2021/11/01 12:34:27;;;;;;;7.70;3.20;;;;;;;;;;5051604;28;20079;-74
2021/11/01 12:37:01;;;;;;;11.50;4.82;;;;;;;;;;5051027;28;20052;-74
2021/11/01 12:39:41;;;;;;;8.75;3.28;;;;;;;;;;5044186;28;20033;-76
2021/11/01 12:58:08;;;;;;;6.95;3.13;;;;;;;;;;5043542;28;20114;-73
2021/11/01 13:00:39;;;;;;;8.38;3.60;;;;;;;;;;5046892;28;20027;-73
2021/11/01 13:03:21;;;;;;;6.07;2.78;;;;;;;;;;5048785;28;20029;-74
2021/11/01 13:05:54;;;;;;;6.10;2.70;;;;;;;;;;5028078;28;20041;-73
2021/11/01 13:08:28;;;;;;;3.95;2.50;;;;;;;;;;5046592;28;20491;-74
2021/11/01 13:18:44;;;;;;;9.27;3.38;;;;;;;;;;5044318;28;20564;-74
2021/11/01 13:21:15;;;;;;;4.10;3.00;;;;;;;;;;5048045;28;20029;-73
2021/11/01 13:23:53;;;;;;;5.57;3.45;;;;;;;;;;5047043;28;20041;-73
2021/11/01 13:27:31;;;;;;;6.07;3.00;;;;;;;;;;5047133;28;20013;-73
2021/11/01 13:35:14;;;;;;;5.68;2.90;;;;;;;;;;5045424;28;20791;-73
2021/11/01 13:37:47;;;;;;;9.27;2.78;;;;;;;;;;5029256;28;20483;-73
2021/11/01 13:40:15;;;;;;;9.38;3.88;;;;;;;;;;5044661;28;20040;-73
2021/11/01 13:42:52;;;;;;;3.97;2.78;;;;;;;;;;5047851;28;20075;-74
2021/11/01 13:45:20;;;;;;;7.32;2.88;;;;;;;;;;5044625;28;20457;-74
2021/11/01 13:47:50;;;;;;;6.60;2.80;;;;;;;;;;5046644;28;20017;-73
2021/11/01 13:50:18;;;;;;;9.30;3.10;;;;;;;;;;5030040;28;20027;-73
2021/11/01 13:53:06;;;;;;;8.98;2.72;;;;;;;;;;5045577;28;20048;-73
2021/11/01 13:55:41;;;;;;;5.70;2.63;;;;;;;;;;5044504;28;20547;-73
2021/11/01 13:58:31;;;;;;;6.32;3.00;;;;;;;;;;5042446;28;20432;-73
2021/11/01 15:15:55;;;;;;;7.78;2.95;;;;;;;;;;5043452;28;20516;-73
2021/11/01 15:20:59;;;;;;;6.10;3.60;;;;;;;;;;5044665;28;20446;-73
2021/11/01 16:20:23;;;;;;;5.03;3.30;;;;;;;;;;5046812;28;20035;-72
2021/11/01 16:22:54;;;;;;;6.13;3.17;;;;;;;;;;5045988;28;20040;-73
2021/11/01 16:25:20;;;;;;;7.20;3.30;;;;;;;;;;5047005;28;20052;-73
2021/11/01 16:27:48;;;;;;;5.65;3.10;;;;;;;;;;5048921;28;20032;-73
2021/11/01 16:30:21;;;;;;;5.13;3.67;;;;;;;;;;5046418;28;20506;-73
2021/11/01 16:32:52;;;;;;;8.05;3.03;;;;;;;;;;5047548;28;20017;-72
2021/11/01 16:35:23;;;;;;;4.67;2.87;;;;;;;;;;5049056;28;20029;-71
2021/11/01 16:38:10;;;;;;;6.18;3.28;;;;;;;;;;5046765;28;21311;-72
2021/11/01 16:40:37;;;;;;;8.00;3.42;;;;;;;;;;5051219;28;20063;-72
2021/11/01 16:48:09;;;;;;;4.43;3.10;;;;;;;;;;5068379;28;20052;-72
2021/11/01 16:50:36;;;;;;;7.25;2.90;;;;;;;;;;5057140;28;20020;-72
2021/11/01 16:53:03;;;;;;;5.57;3.10;;;;;;;;;;5073836;28;20147;-73
2021/11/01 16:55:37;;;;;;;8.52;3.60;;;;;;;;;;5072286;28;20056;-73
2021/11/01 16:58:30;;;;;;;8.50;3.97;;;;;;;;;;5043811;28;20462;-73
2021/11/01 17:01:07;;;;;;;7.25;3.63;;;;;;;;;;5065961;28;20093;-73
2021/11/01 17:25:04;;;;;;;7.07;3.63;;;;;;;;;;5072289;28;20056;-72
2021/11/01 17:30:48;;;;;;;9.50;3.55;;;;;;;;;;5068015;28;20028;-72
2021/11/01 17:36:41;;;;;;;7.32;3.45;;;;;;;;;;5064327;28;20027;-72
2021/11/01 18:42:09;;;;;;;10.18;4.80;;;;;;;;;;5065392;28;20032;-83
2021/11/01 18:44:58;;;;;;;8.07;4.85;;;;;;;;;;5045809;28;20034;-83
2021/11/01 18:52:56;;;;;;;11.05;5.32;;;;;;;;;;5071638;28;20070;-83
2021/11/01 18:55:23;;;;;;;9.35;4.72;;;;;;;;;;5062917;28;20017;-82
2021/11/01 18:57:50;;;;;;;9.75;5.30;;;;;;;;;;5066099;28;20027;-82
2021/11/01 19:00:17;;;;;;;11.82;5.32;;;;;;;;;;5066251;28;20022;-82
2021/11/01 19:02:47;;;;;;;9.90;6.65;;;;;;;;;;5047710;28;20039;-82
2021/11/01 20:03:05;;;;;;;14.90;5.90;;;;;;;;;;5067511;28;20564;-87
2021/11/01 20:08:15;;;;;;;9.90;5.45;;;;;;;;;;5069915;28;20055;-89
2021/11/01 20:11:10;;;;;;;10.15;5.60;;;;;;;;;;5048073;28;20075;-88
2021/11/01 20:13:49;;;;;;;11.48;5.82;;;;;;;;;;5064410;28;20048;-88
2021/11/01 21:25:25;;;;;;;10.55;5.50;;;;;;;;;;5069212;28;20063;-88
2021/11/01 21:27:51;;;;;;;11.02;5.32;;;;;;;;;;5069650;28;20020;-87
2021/11/01 21:30:18;;;;;;;11.73;5.82;;;;;;;;;;5056167;28;20107;-87
2021/11/01 21:32:45;;;;;;;12.70;6.55;;;;;;;;;;5074674;28;20510;-87
2021/11/01 21:35:13;;;;;;;;;;;;;;;;;;5059287;28;20036;-89
2021/11/01 21:37:39;;;;;;;;;;;;;;;;;;5073297;28;20467;-87
2021/11/01 21:40:09;;;;;;;11.27;6.70;;;;;;;;;;5067920;28;20482;-88
2021/11/01 21:42:35;;;;;;;15.27;5.95;;;;;;;;;;5056143;28;20371;-88
2021/11/01 21:45:01;;;;;;;12.75;6.53;;;;;;;;;;5073350;28;20036;-88
2021/11/01 21:47:27;;;;;;;13.23;5.60;;;;;;;;;;5076918;28;20024;-93
2021/11/01 21:49:54;;;;;;;9.60;6.43;;;;;;;;;;5089694;22;20051;-70
2021/11/01 21:52:20;;;;;;;13.02;7.50;;;;;;;;;;5034234;28;20489;-70
2021/11/01 21:54:57;;;;;;;16.77;6.82;;;;;;;;;;5034333;28;20049;-67
2021/11/01 21:57:30;;;;;;;14.93;6.28;;;;;;;;;;5051219;28;20020;-68
2021/11/01 22:10:40;;;;;;;17.42;6.72;;;;;;;;;;5051245;28;20031;-68
2021/11/01 22:42:13;;;;;;;15.10;7.93;;;;;;;;;;5049021;28;20405;-68
2021/11/01 22:57:50;;;;;;;14.73;6.28;;;;;;;;;;5046603;28;20047;-69
2021/11/01 23:00:21;;;;;;;11.93;6.35;;;;;;;;;;5028821;28;20553;-68
2021/11/01 23:02:52;;;;;;;14.17;6.60;;;;;;;;;;5049440;28;20108;-69
2021/11/01 23:32:42;;;;;;;29.05;8.05;;;;;;;;;;5045642;28;20060;-68
2021/11/01 23:35:09;;;;;;;15.07;7.00;;;;;;;;;;5040861;28;20033;-69
2021/11/01 23:37:35;;;;;;;15.98;8.15;;;;;;;;;;5039197;28;20036;-68
2021/11/01 23:40:01;;;;;;;13.02;7.13;;;;;;;;;;5037994;28;20112;-68
2021/11/01 23:42:27;;;;;;;12.57;7.70;;;;;;;;;;5033117;28;20024;-68
2021/11/01 23:44:54;;;;;;;;;;;;;;;;;;5047768;28;20037;-68
2021/11/01 23:47:22;;;;;;;19.10;9.45;;;;;;;;;;5044762;28;20732;-68
2021/11/01 23:49:48;;;;;;;16.42;8.18;;;;;;;;;;5031360;28;20037;-69
2021/11/01 23:52:16;;;;;;;20.40;8.48;;;;;;;;;;5045555;28;20025;-68
2021/11/01 23:54:44;;;;;;;16.08;8.93;;;;;;;;;;5046800;28;20043;-67
2021/11/01 23:57:19;;;;;;;14.68;8.30;;;;;;;;;;5042690;28;20056;-68
2021/11/01 23:59:45;;;;;;;15.18;8.35;;;;;;;;;;5030745;28;20035;-68
